createdAt,value
2023-01-04T00:00:44.484Z,29.17
2023-01-04T00:04:02.136Z,31.73
2023-01-04T00:07:04.507Z,35.57
2023-01-04T00:10:06.650Z,44.90
2023-01-04T00:13:08.849Z,47.63
2023-01-04T00:16:20.573Z,31.67
2023-01-04T00:19:24.492Z,36.90
2023-01-04T00:22:26.462Z,33.40
2023-01-04T00:25:28.679Z,35.10
2023-01-04T00:28:30.654Z,35.10
2023-01-04T00:31:33.695Z,33.83
2023-01-04T00:34:35.753Z,34.13
2023-01-04T00:37:38.016Z,34.77
2023-01-04T00:40:39.954Z,31.43
2023-01-04T00:43:42.373Z,33.67
2023-01-04T00:46:44.784Z,32.67
2023-01-04T00:49:47.085Z,29.60
2023-01-04T00:52:50.387Z,31.23
2023-01-04T00:55:52.679Z,33.10
2023-01-04T00:58:56.332Z,32.10
2023-01-04T01:01:58.808Z,31.43
2023-01-04T01:05:00.831Z,29.33
2023-01-04T01:08:24.024Z,27.17
2023-01-04T01:11:27.020Z,32.73
2023-01-04T01:14:29.348Z,32.00
2023-01-04T01:17:31.314Z,32.47
2023-01-04T01:20:33.580Z,33.63
2023-01-04T01:23:35.870Z,35.67
2023-01-04T01:26:38.115Z,37.10
2023-01-04T01:29:40.107Z,35.60
2023-01-04T01:32:42.351Z,31.27
2023-01-04T01:35:44.383Z,31.07
2023-01-04T01:38:47.239Z,28.57
2023-01-04T01:41:49.300Z,25.90
2023-01-04T01:44:59.695Z,27.07
2023-01-04T01:48:12.729Z,26.10
2023-01-04T01:51:17.707Z,25.77
2023-01-04T01:54:29.420Z,24.60
2023-01-04T01:57:35.405Z,25.47
2023-01-04T02:00:37.466Z,24.30
2023-01-04T02:03:42.794Z,23.73
2023-01-04T02:06:56.884Z,24.27
2023-01-04T02:10:00.016Z,23.87
2023-01-04T02:13:07.479Z,22.33
2023-01-04T02:16:31.996Z,23.70
2023-01-04T02:20:10.395Z,23.13
2023-01-04T02:23:18.560Z,22.87
2023-01-04T02:26:50.724Z,23.57
2023-01-04T02:30:08.042Z,22.20
2023-01-04T02:33:27.853Z,23.53
2023-01-04T02:36:42.312Z,23.20
2023-01-04T02:39:57.214Z,22.03
2023-01-04T02:43:31.130Z,22.57
2023-01-04T02:46:39.072Z,22.73
2023-01-04T02:50:04.679Z,22.83
2023-01-04T02:53:12.946Z,23.67
2023-01-04T02:57:05.274Z,29.37
2023-01-04T03:00:16.943Z,27.17
2023-01-04T03:03:46.319Z,25.73
2023-01-04T03:07:23.760Z,27.77
2023-01-04T03:10:35.790Z,26.37
2023-01-04T03:13:45.843Z,25.33
2023-01-04T03:16:50.171Z,25.47
2023-01-04T03:19:55.570Z,24.23
2023-01-04T03:23:30.994Z,24.33
2023-01-04T03:27:05.784Z,23.93
2023-01-04T03:30:30.388Z,23.30
2023-01-04T03:33:51.741Z,24.73
2023-01-04T03:37:06.935Z,23.50
2023-01-04T03:40:39.666Z,21.50
2023-01-04T03:44:09.366Z,20.70
2023-01-04T03:47:37.509Z,21.60
2023-01-04T03:50:45.992Z,21.30
2023-01-04T03:54:04.075Z,20.47
2023-01-04T03:57:08.748Z,19.50
2023-01-04T04:00:16.243Z,20.53
2023-01-04T04:03:18.535Z,20.33
2023-01-04T04:06:38.996Z,21.30
2023-01-04T04:09:41.280Z,20.80
2023-01-04T04:12:43.327Z,21.00
2023-01-04T04:15:45.731Z,19.33
2023-01-04T04:18:48.226Z,18.73
2023-01-04T04:21:50.578Z,19.40
2023-01-04T04:24:52.533Z,21.87
2023-01-04T04:27:54.924Z,24.13
2023-01-04T04:30:56.914Z,25.17
2023-01-04T04:33:59.281Z,24.30
2023-01-04T04:37:01.227Z,28.30
2023-01-04T04:40:05.167Z,20.90
2023-01-04T04:43:08.934Z,17.43
2023-01-04T04:46:11.398Z,17.17
2023-01-04T04:49:14.077Z,16.20
2023-01-04T04:52:16.400Z,18.53
2023-01-04T04:55:18.355Z,16.03
2023-01-04T04:58:21.692Z,15.63
2023-01-04T05:01:23.893Z,16.10
2023-01-04T05:04:26.392Z,15.27
2023-01-04T05:07:28.313Z,14.97
2023-01-04T05:10:30.642Z,15.40
2023-01-04T05:13:32.661Z,15.07
2023-01-04T05:16:35.784Z,15.43
2023-01-04T05:19:37.775Z,15.10
2023-01-04T05:22:40.985Z,14.57
2023-01-04T05:25:43.243Z,14.83
2023-01-04T05:28:49.997Z,15.70
2023-01-04T05:31:55.732Z,15.53
2023-01-04T05:34:58.058Z,15.37
2023-01-04T05:38:00.360Z,15.93
2023-01-04T05:41:03.608Z,16.13
2023-01-04T05:44:05.722Z,15.40
2023-01-04T05:47:14.470Z,15.53
2023-01-04T05:50:17.907Z,14.73
2023-01-04T05:53:20.217Z,14.77
2023-01-04T05:56:22.167Z,17.87
2023-01-04T05:59:24.444Z,21.87
2023-01-04T06:02:29.499Z,17.87
2023-01-04T06:05:32.215Z,17.23
2023-01-04T06:08:34.173Z,16.60
2023-01-04T06:11:36.500Z,15.70
2023-01-04T06:14:38.620Z,16.83
2023-01-04T06:17:41.055Z,14.90
2023-01-04T06:20:44.068Z,14.70
2023-01-04T06:23:46.505Z,14.10
2023-01-04T06:26:48.887Z,14.70
2023-01-04T06:29:51.371Z,14.13
2023-01-04T06:32:53.321Z,15.03
2023-01-04T06:35:56.142Z,14.33
2023-01-04T06:38:59.357Z,13.97
2023-01-04T06:42:06.585Z,20.87
2023-01-04T06:45:09.560Z,18.27
2023-01-04T06:48:11.850Z,14.70
2023-01-04T06:51:21.453Z,14.07
2023-01-04T06:54:23.830Z,13.97
2023-01-04T06:57:25.843Z,14.37
2023-01-04T07:00:28.375Z,15.70
2023-01-04T07:03:30.355Z,17.50
2023-01-04T07:06:32.664Z,17.30
2023-01-04T07:09:36.009Z,28.13
2023-01-04T07:12:39.342Z,20.27
2023-01-04T07:15:41.623Z,19.10
2023-01-04T07:18:45.083Z,16.13
2023-01-04T07:21:47.224Z,17.23
2023-01-04T07:24:49.577Z,14.73
2023-01-04T07:27:54.861Z,14.40
2023-01-04T07:30:57.156Z,12.17
2023-01-04T07:33:59.233Z,12.90
2023-01-04T07:37:01.485Z,11.67
2023-01-04T07:40:04.090Z,11.93
2023-01-04T07:43:06.354Z,11.57
2023-01-04T07:46:15.348Z,11.93
2023-01-04T07:49:18.642Z,12.00
2023-01-04T07:52:20.891Z,12.83
2023-01-04T07:55:23.226Z,12.57
2023-01-04T07:58:25.882Z,15.07
2023-01-04T08:01:28.470Z,12.27
2023-01-04T08:04:35.012Z,13.20
2023-01-04T08:07:37.525Z,11.03
2023-01-04T08:10:39.565Z,10.40
2023-01-04T08:13:42.642Z,11.00
2023-01-04T08:16:44.716Z,9.73
2023-01-04T08:19:47.033Z,9.17
2023-01-04T08:22:49.069Z,8.90
2023-01-04T08:25:51.288Z,7.93
2023-01-04T08:28:53.951Z,8.40
2023-01-04T08:31:56.229Z,8.43
2023-01-04T08:34:58.364Z,6.93
2023-01-04T08:38:28.619Z,7.77
2023-01-04T08:41:56.117Z,7.30
2023-01-04T08:44:44.998Z,7.10
2023-01-04T08:47:47.018Z,8.23
2023-01-04T08:50:49.245Z,7.10
2023-01-04T08:53:51.249Z,7.80
2023-01-04T08:56:53.804Z,7.93
2023-01-04T08:59:55.831Z,7.37
2023-01-04T09:02:58.306Z,7.50
2023-01-04T09:06:12.629Z,7.63
2023-01-04T09:09:15.856Z,7.80
2023-01-04T09:12:17.871Z,7.33
2023-01-04T09:15:20.402Z,7.70
2023-01-04T09:18:31.418Z,8.67
2023-01-04T09:21:34.815Z,7.90
2023-01-04T09:24:36.856Z,7.97
2023-01-04T09:27:39.900Z,8.37
2023-01-04T09:30:42.034Z,7.97
2023-01-04T09:34:13.538Z,9.43
2023-01-04T09:37:07.856Z,9.30
2023-01-04T09:40:20.665Z,7.77
2023-01-04T09:43:24.075Z,7.63
2023-01-04T09:46:26.401Z,9.03
2023-01-04T09:49:50.406Z,9.00
2023-01-04T09:52:59.521Z,15.00
2023-01-04T09:56:19.804Z,10.17
2023-01-04T09:59:30.666Z,13.40
2023-01-04T10:02:47.042Z,10.33
2023-01-04T10:05:51.083Z,12.00
2023-01-04T10:08:53.803Z,12.03
2023-01-04T10:12:24.759Z,12.23
2023-01-04T10:16:06.586Z,10.87
2023-01-04T10:23:12.437Z,10.43
2023-01-04T10:26:18.038Z,11.60
2023-01-04T10:29:44.297Z,17.97
2023-01-04T10:32:56.167Z,18.57
2023-01-04T10:35:59.417Z,12.57
2023-01-04T10:39:12.100Z,10.77
2023-01-04T10:42:37.782Z,10.47
2023-01-04T10:45:58.332Z,9.50
2023-01-04T10:49:28.513Z,10.10
2023-01-04T10:52:39.606Z,9.93
2023-01-04T10:56:25.867Z,10.30
2023-01-04T10:59:15.675Z,10.57
2023-01-04T11:03:08.810Z,9.63
2023-01-04T11:06:26.777Z,10.17
2023-01-04T11:09:44.640Z,10.17
2023-01-04T11:12:46.961Z,11.77
2023-01-04T11:15:49.103Z,11.20
2023-01-04T11:18:52.268Z,8.33
2023-01-04T11:22:00.922Z,9.73
2023-01-04T11:28:51.581Z,8.07
2023-01-04T11:32:01.497Z,10.13
2023-01-04T11:35:04.028Z,11.20
2023-01-04T11:38:18.778Z,11.23
2023-01-04T11:41:20.785Z,10.53
2023-01-04T11:44:24.700Z,11.40
2023-01-04T11:47:33.035Z,10.87
2023-01-04T11:50:44.572Z,12.13
2023-01-04T11:53:56.691Z,11.53
2023-01-04T11:57:11.785Z,11.63
2023-01-04T12:00:22.037Z,13.00
2023-01-04T12:03:55.397Z,13.07
2023-01-04T12:07:12.057Z,12.80
2023-01-04T12:10:27.053Z,10.70
2023-01-04T12:13:30.394Z,11.10
2023-01-04T12:16:45.200Z,9.70
2023-01-04T12:19:49.240Z,10.00
2023-01-04T12:22:51.629Z,13.47
2023-01-04T12:25:54.894Z,15.50
2023-01-04T12:29:22.692Z,17.00
2023-01-04T12:32:27.871Z,18.70
2023-01-04T12:36:04.944Z,9.30
2023-01-04T12:39:13.803Z,10.07
2023-01-04T12:42:18.810Z,8.03
2023-01-04T12:45:22.194Z,7.70
2023-01-04T12:48:48.668Z,6.60
2023-01-04T12:55:33.030Z,6.07
2023-01-04T12:59:06.869Z,6.60
2023-01-04T13:02:22.910Z,5.50
2023-01-04T13:05:55.549Z,5.23
2023-01-04T13:08:57.792Z,6.10
2023-01-04T13:12:14.097Z,5.50
2023-01-04T13:15:25.159Z,5.00
2023-01-04T13:18:34.082Z,4.50
2023-01-04T13:21:41.037Z,5.07
2023-01-04T13:24:44.518Z,5.00
2023-01-04T13:28:01.026Z,4.70
2023-01-04T13:31:03.286Z,5.87
2023-01-04T13:34:05.893Z,4.90
2023-01-04T13:37:10.838Z,5.63
2023-01-04T13:40:15.902Z,5.87
2023-01-04T13:43:37.360Z,6.17
2023-01-04T13:46:43.173Z,5.70
2023-01-04T13:49:46.625Z,5.47
2023-01-04T13:53:03.552Z,5.50
2023-01-04T13:56:20.693Z,5.70
2023-01-04T13:59:23.248Z,5.70
2023-01-04T14:02:25.529Z,5.00
2023-01-04T14:05:28.031Z,5.93
2023-01-04T14:08:56.969Z,4.97
2023-01-04T14:12:16.734Z,4.87
2023-01-04T14:15:26.002Z,4.67
2023-01-04T14:18:30.294Z,5.60
2023-01-04T14:21:37.405Z,5.30
2023-01-04T14:25:08.452Z,5.03
2023-01-04T14:28:24.638Z,5.27
2023-01-04T14:31:30.629Z,7.00
2023-01-04T14:34:36.456Z,5.30
2023-01-04T14:37:39.106Z,5.00
2023-01-04T14:40:41.566Z,5.30
2023-01-04T14:43:46.860Z,5.53
2023-01-04T14:46:54.330Z,6.03
2023-01-04T14:49:56.702Z,5.30
2023-01-04T14:52:58.768Z,5.57
2023-01-04T14:56:01.113Z,5.03
2023-01-04T14:59:03.416Z,5.97
2023-01-04T15:02:06.090Z,5.23
2023-01-04T15:05:13.168Z,5.03
2023-01-04T15:08:15.803Z,5.90
2023-01-04T15:11:22.258Z,6.60
2023-01-04T15:14:25.052Z,5.50
2023-01-04T15:17:27.254Z,5.87
2023-01-04T15:20:30.244Z,5.63
2023-01-04T15:23:32.975Z,5.97
2023-01-04T15:26:35.614Z,5.97
2023-01-04T15:29:38.135Z,6.17
2023-01-04T15:32:42.612Z,5.43
2023-01-04T15:35:46.481Z,5.63
2023-01-04T15:38:56.825Z,5.70
2023-01-04T15:42:17.692Z,5.40
2023-01-04T15:45:21.258Z,5.17
2023-01-04T15:48:23.346Z,5.23
2023-01-04T15:51:25.705Z,5.27
2023-01-04T15:54:28.652Z,4.87
2023-01-04T15:57:32.366Z,4.70
2023-01-04T16:00:35.140Z,4.60
2023-01-04T16:03:37.960Z,5.57
2023-01-04T16:06:40.985Z,4.70
2023-01-04T16:09:43.348Z,5.00
2023-01-04T16:12:48.705Z,5.90
2023-01-04T16:15:55.763Z,5.20
2023-01-04T16:18:58.819Z,5.03
2023-01-04T16:22:04.140Z,5.40
2023-01-04T16:25:11.968Z,4.57
2023-01-04T16:28:14.696Z,5.20
2023-01-04T16:31:16.777Z,5.30
2023-01-04T16:34:19.281Z,4.70
2023-01-04T16:37:21.416Z,4.97
2023-01-04T16:40:25.178Z,5.70
2023-01-04T16:43:28.892Z,4.90
2023-01-04T16:46:36.040Z,5.47
2023-01-04T16:49:38.107Z,4.87
2023-01-04T16:52:40.906Z,5.23
2023-01-04T16:55:42.955Z,4.73
2023-01-04T16:58:45.431Z,4.47
2023-01-04T17:01:55.893Z,6.10
2023-01-04T17:05:00.992Z,4.90
2023-01-04T17:08:03.390Z,5.63
2023-01-04T17:14:39.022Z,7.23
2023-01-04T17:17:42.276Z,6.30
2023-01-04T17:20:44.298Z,6.00
2023-01-04T17:23:49.208Z,6.33
2023-01-04T17:26:51.213Z,6.77
2023-01-04T17:29:53.500Z,5.73
2023-01-04T17:32:55.534Z,6.40
2023-01-04T17:36:02.788Z,5.07
2023-01-04T17:39:04.789Z,5.63
2023-01-04T17:42:08.242Z,5.47
2023-01-04T17:45:10.543Z,6.70
2023-01-04T17:48:12.786Z,6.33
2023-01-04T17:51:23.816Z,5.50
2023-01-04T17:54:27.069Z,4.83
2023-01-04T17:57:32.099Z,5.70
2023-01-04T18:00:34.403Z,4.73
2023-01-04T18:03:38.960Z,5.50
2023-01-04T18:06:42.519Z,5.80
2023-01-04T18:09:44.582Z,5.00
2023-01-04T18:12:46.844Z,5.13
2023-01-04T18:16:18.442Z,5.67
2023-01-04T18:19:11.060Z,6.03
2023-01-04T18:22:13.056Z,5.50
2023-01-04T18:25:16.475Z,4.80
2023-01-04T18:28:18.523Z,5.40
2023-01-04T18:31:23.429Z,4.93
2023-01-04T18:34:26.636Z,4.90
2023-01-04T18:37:29.153Z,5.33
2023-01-04T18:40:31.185Z,5.43
2023-01-04T18:43:35.864Z,4.63
2023-01-04T18:46:38.098Z,5.27
2023-01-04T18:49:40.335Z,4.83
2023-01-04T18:52:42.370Z,4.47
2023-01-04T18:55:44.726Z,4.50
2023-01-04T18:58:49.052Z,5.10
2023-01-04T19:01:51.389Z,5.03
2023-01-04T19:04:53.465Z,5.10
2023-01-04T19:07:55.811Z,4.57
2023-01-04T19:10:57.781Z,4.50
2023-01-04T19:14:00.066Z,4.27
2023-01-04T19:17:02.192Z,4.43
2023-01-04T19:20:05.429Z,4.90
2023-01-04T19:23:08.438Z,4.60
2023-01-04T19:26:10.862Z,4.60
2023-01-04T19:29:12.874Z,4.47
2023-01-04T19:32:19.118Z,4.90
2023-01-04T19:35:21.195Z,5.13
2023-01-04T19:38:23.467Z,4.70
2023-01-04T19:41:33.605Z,5.10
2023-01-04T19:44:36.576Z,5.17
2023-01-04T19:47:38.641Z,8.73
2023-01-04T19:50:41.057Z,5.33
2023-01-04T19:53:44.699Z,4.73
2023-01-04T19:56:48.375Z,4.43
2023-01-04T19:59:50.947Z,5.27
2023-01-04T20:02:53.423Z,4.37
2023-01-04T20:05:55.905Z,4.80
2023-01-04T20:08:58.361Z,4.20
2023-01-04T20:12:00.774Z,4.07
2023-01-04T20:15:03.428Z,4.00
2023-01-04T20:18:11.810Z,4.20
2023-01-04T20:21:16.517Z,4.70
2023-01-04T20:24:18.923Z,4.10
2023-01-04T20:27:21.230Z,3.87
2023-01-04T20:30:23.184Z,4.07
2023-01-04T20:33:25.554Z,3.87
2023-01-04T20:36:31.622Z,3.57
2023-01-04T20:39:34.163Z,3.87
2023-01-04T20:42:54.562Z,3.67
2023-01-04T20:45:58.123Z,4.23
2023-01-04T20:49:01.506Z,3.67
2023-01-04T20:52:04.268Z,3.63
2023-01-04T20:55:17.735Z,3.50
2023-01-04T20:58:23.781Z,3.27
2023-01-04T21:01:30.613Z,3.23
2023-01-04T21:04:33.796Z,3.60
2023-01-04T21:07:36.025Z,2.90
2023-01-04T21:10:42.871Z,3.30
2023-01-04T21:13:45.884Z,3.17
2023-01-04T21:16:48.266Z,3.57
2023-01-04T21:19:50.246Z,3.00
2023-01-04T21:22:53.574Z,2.80
2023-01-04T21:25:57.117Z,2.40
2023-01-04T21:28:59.815Z,3.13
2023-01-04T21:32:02.361Z,2.67
2023-01-04T21:35:05.121Z,2.30
2023-01-04T21:38:08.106Z,2.20
2023-01-04T21:41:12.356Z,2.43
2023-01-04T21:44:14.395Z,2.17
2023-01-04T21:47:16.703Z,2.17
2023-01-04T21:50:18.840Z,2.30
2023-01-04T21:53:21.768Z,1.93
2023-01-04T21:56:25.135Z,2.60
2023-01-04T21:59:27.361Z,2.17
2023-01-04T22:02:29.433Z,2.07
2023-01-04T22:05:31.915Z,2.60
2023-01-04T22:08:34.740Z,2.47
2023-01-04T22:11:37.261Z,2.00
2023-01-04T22:14:39.260Z,2.10
2023-01-04T22:17:41.802Z,1.70
2023-01-04T22:20:44.294Z,1.50
2023-01-04T22:23:46.678Z,1.57
2023-01-04T22:26:50.610Z,1.80
2023-01-04T22:29:52.841Z,1.47
2023-01-04T22:32:55.105Z,1.50
2023-01-04T22:35:57.473Z,1.87
2023-01-04T22:38:59.484Z,1.30
2023-01-04T22:42:01.983Z,1.50
2023-01-04T22:45:09.462Z,1.13
2023-01-04T22:48:15.234Z,1.00
2023-01-04T22:51:19.617Z,1.70
2023-01-04T22:54:22.072Z,0.90
2023-01-04T22:57:24.220Z,0.97
2023-01-04T23:00:26.580Z,1.00
2023-01-04T23:03:28.694Z,1.00
2023-01-04T23:06:32.068Z,0.90
2023-01-04T23:09:34.058Z,1.10
2023-01-04T23:12:36.307Z,1.10
2023-01-04T23:15:39.703Z,0.83
2023-01-04T23:18:42.119Z,1.00
2023-01-04T23:21:44.184Z,1.23
2023-01-04T23:24:46.484Z,1.10
2023-01-04T23:27:48.444Z,0.90
2023-01-04T23:30:50.739Z,0.83
2023-01-04T23:33:54.584Z,1.20
2023-01-04T23:36:56.882Z,1.00
2023-01-04T23:39:59.195Z,1.10
2023-01-04T23:43:01.480Z,0.90
2023-01-04T23:46:08.393Z,0.90
2023-01-04T23:49:11.505Z,0.80
2023-01-04T23:52:13.646Z,1.07
2023-01-04T23:55:15.949Z,1.07
2023-01-04T23:58:17.902Z,1.07
